sensor_id;sensor_type;location;lat;lon;timestamp;temperature;humidity
11083;DHT22;5595;50.186;8.468;2023-03-23T00:00:56;12.40;99.90
11083;DHT22;5595;50.186;8.468;2023-03-23T00:03:23;12.40;99.90
11083;DHT22;5595;50.186;8.468;2023-03-23T00:05:54;12.40;99.90
11083;DHT22;5595;50.186;8.468;2023-03-23T00:08:26;12.40;99.90
11083;DHT22;5595;50.186;8.468;2023-03-23T00:10:53;12.50;99.90
11083;DHT22;5595;50.186;8.468;2023-03-23T00:13:24;12.50;99.90
11083;DHT22;5595;50.186;8.468;2023-03-23T00:15:51;12.50;99.90
11083;DHT22;5595;50.186;8.468;2023-03-23T00:18:19;12.40;99.90
11083;DHT22;5595;50.186;8.468;2023-03-23T00:20:50;12.50;99.90
11083;DHT22;5595;50.186;8.468;2023-03-23T00:23:18;12.60;99.90
11083;DHT22;5595;50.186;8.468;2023-03-23T00:25:48;12.50;99.90
11083;DHT22;5595;50.186;8.468;2023-03-23T00:28:16;12.50;99.90
11083;DHT22;5595;50.186;8.468;2023-03-23T00:30:43;12.50;99.90
11083;DHT22;5595;50.186;8.468;2023-03-23T00:33:11;12.40;99.90
11083;DHT22;5595;50.186;8.468;2023-03-23T00:35:40;12.50;99.90
11083;DHT22;5595;50.186;8.468;2023-03-23T00:38:10;12.50;99.90
11083;DHT22;5595;50.186;8.468;2023-03-23T00:40:37;12.50;99.90
11083;DHT22;5595;50.186;8.468;2023-03-23T00:43:05;12.50;99.90
11083;DHT22;5595;50.186;8.468;2023-03-23T00:45:32;12.50;99.90
11083;DHT22;5595;50.186;8.468;2023-03-23T00:48:00;12.60;99.90
11083;DHT22;5595;50.186;8.468;2023-03-23T00:50:30;12.50;99.90
11083;DHT22;5595;50.186;8.468;2023-03-23T00:52:57;12.50;99.90
11083;DHT22;5595;50.186;8.468;2023-03-23T00:55:25;12.40;99.90
11083;DHT22;5595;50.186;8.468;2023-03-23T00:57:51;12.50;99.90
11083;DHT22;5595;50.186;8.468;2023-03-23T01:00:21;12.50;99.90
11083;DHT22;5595;50.186;8.468;2023-03-23T01:02:48;12.40;99.90
11083;DHT22;5595;50.186;8.468;2023-03-23T01:05:17;12.40;99.90
11083;DHT22;5595;50.186;8.468;2023-03-23T01:07:44;12.40;99.90
11083;DHT22;5595;50.186;8.468;2023-03-23T01:10:12;12.40;99.90
11083;DHT22;5595;50.186;8.468;2023-03-23T01:12:42;12.40;99.90
11083;DHT22;5595;50.186;8.468;2023-03-23T01:15:13;12.40;99.90
11083;DHT22;5595;50.186;8.468;2023-03-23T01:17:43;12.30;99.90
11083;DHT22;5595;50.186;8.468;2023-03-23T01:20:12;12.50;99.90
11083;DHT22;5595;50.186;8.468;2023-03-23T01:22:40;12.40;99.90
11083;DHT22;5595;50.186;8.468;2023-03-23T01:25:09;12.40;99.90
11083;DHT22;5595;50.186;8.468;2023-03-23T01:27:37;12.40;99.90
11083;DHT22;5595;50.186;8.468;2023-03-23T01:30:05;12.40;99.90
11083;DHT22;5595;50.186;8.468;2023-03-23T01:32:33;12.40;99.90
11083;DHT22;5595;50.186;8.468;2023-03-23T01:35:01;12.40;99.90
11083;DHT22;5595;50.186;8.468;2023-03-23T01:37:30;12.40;99.90
11083;DHT22;5595;50.186;8.468;2023-03-23T01:39:57;12.40;99.90
11083;DHT22;5595;50.186;8.468;2023-03-23T01:42:24;12.40;99.90
11083;DHT22;5595;50.186;8.468;2023-03-23T01:45:26;12.40;99.90
11083;DHT22;5595;50.186;8.468;2023-03-23T01:48:04;12.40;99.90
11083;DHT22;5595;50.186;8.468;2023-03-23T01:50:39;12.40;99.90
11083;DHT22;5595;50.186;8.468;2023-03-23T01:53:08;12.30;99.90
11083;DHT22;5595;50.186;8.468;2023-03-23T01:55:39;12.40;99.90
11083;DHT22;5595;50.186;8.468;2023-03-23T01:58:07;12.30;99.90
11083;DHT22;5595;50.186;8.468;2023-03-23T02:00:35;12.20;99.90
11083;DHT22;5595;50.186;8.468;2023-03-23T02:03:03;12.40;99.90
11083;DHT22;5595;50.186;8.468;2023-03-23T02:05:32;12.30;99.90
11083;DHT22;5595;50.186;8.468;2023-03-23T02:08:03;12.30;99.90
11083;DHT22;5595;50.186;8.468;2023-03-23T02:10:31;12.30;99.90
11083;DHT22;5595;50.186;8.468;2023-03-23T02:12:58;12.30;99.90
11083;DHT22;5595;50.186;8.468;2023-03-23T02:15:30;12.20;99.90
11083;DHT22;5595;50.186;8.468;2023-03-23T02:18:04;12.40;99.90
11083;DHT22;5595;50.186;8.468;2023-03-23T02:20:58;12.50;99.90
11083;DHT22;5595;50.186;8.468;2023-03-23T02:23:45;12.30;99.90
11083;DHT22;5595;50.186;8.468;2023-03-23T02:26:32;12.30;99.90
11083;DHT22;5595;50.186;8.468;2023-03-23T02:29:18;12.30;99.90
11083;DHT22;5595;50.186;8.468;2023-03-23T02:32:04;12.30;99.90
11083;DHT22;5595;50.186;8.468;2023-03-23T02:34:38;12.30;99.90
11083;DHT22;5595;50.186;8.468;2023-03-23T02:37:09;12.30;99.90
11083;DHT22;5595;50.186;8.468;2023-03-23T02:39:42;12.30;99.90
11083;DHT22;5595;50.186;8.468;2023-03-23T02:42:13;12.30;99.90
11083;DHT22;5595;50.186;8.468;2023-03-23T02:44:44;12.30;99.90
11083;DHT22;5595;50.186;8.468;2023-03-23T02:47:15;12.20;99.90
11083;DHT22;5595;50.186;8.468;2023-03-23T02:49:47;12.20;99.90
11083;DHT22;5595;50.186;8.468;2023-03-23T02:52:19;12.40;99.90
11083;DHT22;5595;50.186;8.468;2023-03-23T02:54:48;12.10;99.90
11083;DHT22;5595;50.186;8.468;2023-03-23T02:57:16;12.10;99.90
11083;DHT22;5595;50.186;8.468;2023-03-23T02:59:45;12.00;99.90
11083;DHT22;5595;50.186;8.468;2023-03-23T03:02:13;12.00;99.90
11083;DHT22;5595;50.186;8.468;2023-03-23T03:04:43;11.90;99.90
11083;DHT22;5595;50.186;8.468;2023-03-23T03:07:38;11.90;99.90
11083;DHT22;5595;50.186;8.468;2023-03-23T03:10:10;12.00;99.90
11083;DHT22;5595;50.186;8.468;2023-03-23T03:12:47;11.90;99.90
11083;DHT22;5595;50.186;8.468;2023-03-23T03:15:23;11.90;99.90
11083;DHT22;5595;50.186;8.468;2023-03-23T03:17:57;11.80;99.90
11083;DHT22;5595;50.186;8.468;2023-03-23T03:20:27;11.80;99.90
11083;DHT22;5595;50.186;8.468;2023-03-23T03:22:57;11.70;99.90
11083;DHT22;5595;50.186;8.468;2023-03-23T03:25:25;11.70;99.90
11083;DHT22;5595;50.186;8.468;2023-03-23T03:27:54;11.60;99.90
11083;DHT22;5595;50.186;8.468;2023-03-23T03:30:26;11.50;99.90
11083;DHT22;5595;50.186;8.468;2023-03-23T03:32:54;11.50;99.90
11083;DHT22;5595;50.186;8.468;2023-03-23T03:35:22;11.50;99.90
11083;DHT22;5595;50.186;8.468;2023-03-23T03:37:49;11.40;99.90
11083;DHT22;5595;50.186;8.468;2023-03-23T03:40:19;11.30;99.90
11083;DHT22;5595;50.186;8.468;2023-03-23T03:42:46;11.30;99.90
11083;DHT22;5595;50.186;8.468;2023-03-23T03:45:15;11.40;99.90
11083;DHT22;5595;50.186;8.468;2023-03-23T03:47:42;11.40;99.90
11083;DHT22;5595;50.186;8.468;2023-03-23T03:50:10;11.50;99.90
11083;DHT22;5595;50.186;8.468;2023-03-23T03:52:37;11.40;99.90
11083;DHT22;5595;50.186;8.468;2023-03-23T03:55:06;11.70;99.90
11083;DHT22;5595;50.186;8.468;2023-03-23T03:57:35;11.50;99.90
11083;DHT22;5595;50.186;8.468;2023-03-23T04:00:02;11.50;99.90
11083;DHT22;5595;50.186;8.468;2023-03-23T04:02:39;11.60;99.90
11083;DHT22;5595;50.186;8.468;2023-03-23T04:05:07;11.60;99.90
11083;DHT22;5595;50.186;8.468;2023-03-23T04:07:36;11.60;99.90
11083;DHT22;5595;50.186;8.468;2023-03-23T04:10:05;11.60;99.90
11083;DHT22;5595;50.186;8.468;2023-03-23T04:12:35;11.60;99.90
11083;DHT22;5595;50.186;8.468;2023-03-23T04:15:02;11.70;99.90
11083;DHT22;5595;50.186;8.468;2023-03-23T04:17:29;11.70;99.90
11083;DHT22;5595;50.186;8.468;2023-03-23T04:19:56;11.70;99.90
11083;DHT22;5595;50.186;8.468;2023-03-23T04:22:25;11.70;99.90
11083;DHT22;5595;50.186;8.468;2023-03-23T04:24:56;11.80;99.90
11083;DHT22;5595;50.186;8.468;2023-03-23T04:27:24;11.80;99.90
11083;DHT22;5595;50.186;8.468;2023-03-23T04:29:55;11.80;99.90
11083;DHT22;5595;50.186;8.468;2023-03-23T04:32:24;11.80;99.90
11083;DHT22;5595;50.186;8.468;2023-03-23T04:34:54;11.80;99.90
11083;DHT22;5595;50.186;8.468;2023-03-23T04:37:21;11.90;99.90
11083;DHT22;5595;50.186;8.468;2023-03-23T04:39:51;11.90;99.90
11083;DHT22;5595;50.186;8.468;2023-03-23T04:42:27;12.00;99.90
11083;DHT22;5595;50.186;8.468;2023-03-23T04:44:55;11.90;99.90
11083;DHT22;5595;50.186;8.468;2023-03-23T04:47:23;11.90;99.90
11083;DHT22;5595;50.186;8.468;2023-03-23T04:49:50;11.60;99.90
11083;DHT22;5595;50.186;8.468;2023-03-23T04:52:17;11.90;99.90
11083;DHT22;5595;50.186;8.468;2023-03-23T04:54:45;12.10;99.90
11083;DHT22;5595;50.186;8.468;2023-03-23T04:57:13;11.90;99.90
11083;DHT22;5595;50.186;8.468;2023-03-23T04:59:41;11.90;99.90
11083;DHT22;5595;50.186;8.468;2023-03-23T05:02:10;11.90;99.90
11083;DHT22;5595;50.186;8.468;2023-03-23T05:04:38;11.80;99.90
11083;DHT22;5595;50.186;8.468;2023-03-23T05:07:06;11.90;99.90
11083;DHT22;5595;50.186;8.468;2023-03-23T05:09:34;11.90;99.90
11083;DHT22;5595;50.186;8.468;2023-03-23T05:12:04;11.80;99.90
11083;DHT22;5595;50.186;8.468;2023-03-23T05:14:31;11.80;99.90
11083;DHT22;5595;50.186;8.468;2023-03-23T05:16:58;11.80;99.90
11083;DHT22;5595;50.186;8.468;2023-03-23T05:19:27;11.80;99.90
11083;DHT22;5595;50.186;8.468;2023-03-23T05:21:56;11.80;99.90
11083;DHT22;5595;50.186;8.468;2023-03-23T05:24:28;11.80;99.90
11083;DHT22;5595;50.186;8.468;2023-03-23T05:26:56;11.80;99.90
11083;DHT22;5595;50.186;8.468;2023-03-23T05:29:23;11.80;99.90
11083;DHT22;5595;50.186;8.468;2023-03-23T05:31:51;11.80;99.90
11083;DHT22;5595;50.186;8.468;2023-03-23T05:34:18;11.80;99.90
11083;DHT22;5595;50.186;8.468;2023-03-23T05:36:46;11.80;99.90
11083;DHT22;5595;50.186;8.468;2023-03-23T05:39:13;11.80;99.90
11083;DHT22;5595;50.186;8.468;2023-03-23T05:41:41;11.80;99.90
11083;DHT22;5595;50.186;8.468;2023-03-23T05:44:09;11.70;99.90
11083;DHT22;5595;50.186;8.468;2023-03-23T05:46:38;11.80;99.90
11083;DHT22;5595;50.186;8.468;2023-03-23T05:49:05;11.70;99.90
11083;DHT22;5595;50.186;8.468;2023-03-23T05:51:33;11.70;99.90
11083;DHT22;5595;50.186;8.468;2023-03-23T05:54:01;11.70;99.90
11083;DHT22;5595;50.186;8.468;2023-03-23T05:56:28;11.70;99.90
11083;DHT22;5595;50.186;8.468;2023-03-23T05:58:56;11.70;99.90
11083;DHT22;5595;50.186;8.468;2023-03-23T06:01:23;11.70;99.90
11083;DHT22;5595;50.186;8.468;2023-03-23T06:03:50;11.70;99.90
11083;DHT22;5595;50.186;8.468;2023-03-23T06:06:19;11.70;99.90
11083;DHT22;5595;50.186;8.468;2023-03-23T06:08:46;11.70;99.90
11083;DHT22;5595;50.186;8.468;2023-03-23T06:11:17;11.70;99.90
11083;DHT22;5595;50.186;8.468;2023-03-23T06:13:44;11.70;99.90
11083;DHT22;5595;50.186;8.468;2023-03-23T06:16:11;11.60;99.90
11083;DHT22;5595;50.186;8.468;2023-03-23T06:18:38;11.70;99.90
11083;DHT22;5595;50.186;8.468;2023-03-23T06:21:06;11.60;99.90
11083;DHT22;5595;50.186;8.468;2023-03-23T06:23:33;11.70;99.90
11083;DHT22;5595;50.186;8.468;2023-03-23T06:26:02;11.70;99.90
11083;DHT22;5595;50.186;8.468;2023-03-23T06:28:32;11.70;99.90
11083;DHT22;5595;50.186;8.468;2023-03-23T06:31:00;11.70;99.90
11083;DHT22;5595;50.186;8.468;2023-03-23T06:33:27;11.70;99.90
11083;DHT22;5595;50.186;8.468;2023-03-23T06:35:54;11.80;99.90
11083;DHT22;5595;50.186;8.468;2023-03-23T06:38:23;11.80;99.90
11083;DHT22;5595;50.186;8.468;2023-03-23T06:40:51;11.80;99.90
11083;DHT22;5595;50.186;8.468;2023-03-23T06:43:18;11.90;99.90
11083;DHT22;5595;50.186;8.468;2023-03-23T06:45:47;11.80;99.90
11083;DHT22;5595;50.186;8.468;2023-03-23T06:48:14;11.80;99.90
11083;DHT22;5595;50.186;8.468;2023-03-23T06:50:42;11.80;99.90
11083;DHT22;5595;50.186;8.468;2023-03-23T06:53:10;11.80;99.90
11083;DHT22;5595;50.186;8.468;2023-03-23T06:55:37;11.80;99.90
11083;DHT22;5595;50.186;8.468;2023-03-23T06:58:04;11.80;99.90
11083;DHT22;5595;50.186;8.468;2023-03-23T07:00:32;11.90;99.90
11083;DHT22;5595;50.186;8.468;2023-03-23T07:03:00;11.90;99.90
11083;DHT22;5595;50.186;8.468;2023-03-23T07:05:28;11.90;99.90
11083;DHT22;5595;50.186;8.468;2023-03-23T07:07:55;11.90;99.90
11083;DHT22;5595;50.186;8.468;2023-03-23T07:10:22;11.90;99.90
11083;DHT22;5595;50.186;8.468;2023-03-23T07:12:49;12.00;99.90
11083;DHT22;5595;50.186;8.468;2023-03-23T07:15:16;11.90;99.90
11083;DHT22;5595;50.186;8.468;2023-03-23T07:17:43;11.90;99.90
11083;DHT22;5595;50.186;8.468;2023-03-23T07:20:12;11.90;99.90
11083;DHT22;5595;50.186;8.468;2023-03-23T07:22:40;11.90;99.90
11083;DHT22;5595;50.186;8.468;2023-03-23T07:25:07;11.90;99.90
11083;DHT22;5595;50.186;8.468;2023-03-23T07:27:34;11.90;99.90
11083;DHT22;5595;50.186;8.468;2023-03-23T07:30:01;11.70;99.90
11083;DHT22;5595;50.186;8.468;2023-03-23T07:32:28;11.90;99.90
11083;DHT22;5595;50.186;8.468;2023-03-23T07:34:55;11.80;99.90
11083;DHT22;5595;50.186;8.468;2023-03-23T07:37:24;11.80;99.90
11083;DHT22;5595;50.186;8.468;2023-03-23T07:39:51;11.90;99.90
11083;DHT22;5595;50.186;8.468;2023-03-23T07:42:18;11.90;99.90
11083;DHT22;5595;50.186;8.468;2023-03-23T07:44:45;11.90;99.90
11083;DHT22;5595;50.186;8.468;2023-03-23T07:47:12;11.90;99.90
11083;DHT22;5595;50.186;8.468;2023-03-23T07:49:39;11.90;99.90
11083;DHT22;5595;50.186;8.468;2023-03-23T07:52:06;11.90;99.90
11083;DHT22;5595;50.186;8.468;2023-03-23T07:54:34;11.80;99.90
11083;DHT22;5595;50.186;8.468;2023-03-23T07:57:01;11.80;99.90
11083;DHT22;5595;50.186;8.468;2023-03-23T07:59:28;11.80;99.90
11083;DHT22;5595;50.186;8.468;2023-03-23T08:01:55;11.60;99.90
11083;DHT22;5595;50.186;8.468;2023-03-23T08:04:23;11.80;99.90
11083;DHT22;5595;50.186;8.468;2023-03-23T08:06:50;11.90;99.90
11083;DHT22;5595;50.186;8.468;2023-03-23T08:09:17;11.90;99.90
11083;DHT22;5595;50.186;8.468;2023-03-23T08:11:45;12.00;99.90
11083;DHT22;5595;50.186;8.468;2023-03-23T08:14:13;12.00;99.90
11083;DHT22;5595;50.186;8.468;2023-03-23T08:16:40;12.00;99.90
11083;DHT22;5595;50.186;8.468;2023-03-23T08:19:07;12.00;99.90
11083;DHT22;5595;50.186;8.468;2023-03-23T08:21:34;12.00;99.90
11083;DHT22;5595;50.186;8.468;2023-03-23T08:24:03;11.90;99.90
11083;DHT22;5595;50.186;8.468;2023-03-23T08:26:30;12.00;99.90
11083;DHT22;5595;50.186;8.468;2023-03-23T08:28:59;12.00;99.90
11083;DHT22;5595;50.186;8.468;2023-03-23T08:31:25;12.00;99.90
11083;DHT22;5595;50.186;8.468;2023-03-23T08:33:52;12.10;99.90
11083;DHT22;5595;50.186;8.468;2023-03-23T08:36:22;12.10;99.90
11083;DHT22;5595;50.186;8.468;2023-03-23T08:38:49;12.20;99.90
11083;DHT22;5595;50.186;8.468;2023-03-23T08:41:17;12.20;99.90
11083;DHT22;5595;50.186;8.468;2023-03-23T08:43:44;12.20;99.90
11083;DHT22;5595;50.186;8.468;2023-03-23T08:46:13;12.20;99.90
11083;DHT22;5595;50.186;8.468;2023-03-23T08:48:40;12.30;99.90
11083;DHT22;5595;50.186;8.468;2023-03-23T08:51:09;12.20;99.90
11083;DHT22;5595;50.186;8.468;2023-03-23T08:53:37;12.30;99.90
11083;DHT22;5595;50.186;8.468;2023-03-23T08:56:05;12.30;99.90
11083;DHT22;5595;50.186;8.468;2023-03-23T08:58:33;12.50;99.90
11083;DHT22;5595;50.186;8.468;2023-03-23T09:01:00;12.50;99.90
11083;DHT22;5595;50.186;8.468;2023-03-23T09:03:28;12.60;99.90
11083;DHT22;5595;50.186;8.468;2023-03-23T09:05:58;12.60;99.90
11083;DHT22;5595;50.186;8.468;2023-03-23T09:08:27;12.80;99.90
11083;DHT22;5595;50.186;8.468;2023-03-23T09:10:55;12.90;99.90
11083;DHT22;5595;50.186;8.468;2023-03-23T09:13:24;13.00;99.90
11083;DHT22;5595;50.186;8.468;2023-03-23T09:15:51;13.00;99.90
11083;DHT22;5595;50.186;8.468;2023-03-23T09:18:18;13.10;99.90
11083;DHT22;5595;50.186;8.468;2023-03-23T09:20:49;13.10;99.90
11083;DHT22;5595;50.186;8.468;2023-03-23T09:23:16;13.20;99.90
11083;DHT22;5595;50.186;8.468;2023-03-23T09:25:43;13.30;99.90
11083;DHT22;5595;50.186;8.468;2023-03-23T09:28:10;13.30;99.90
11083;DHT22;5595;50.186;8.468;2023-03-23T09:30:38;13.30;99.90
11083;DHT22;5595;50.186;8.468;2023-03-23T09:33:06;13.50;99.90
11083;DHT22;5595;50.186;8.468;2023-03-23T09:35:35;13.50;99.90
11083;DHT22;5595;50.186;8.468;2023-03-23T09:38:05;13.40;99.90
11083;DHT22;5595;50.186;8.468;2023-03-23T09:40:37;13.50;99.90
11083;DHT22;5595;50.186;8.468;2023-03-23T09:43:42;13.50;99.90
11083;DHT22;5595;50.186;8.468;2023-03-23T09:46:29;13.50;99.90
11083;DHT22;5595;50.186;8.468;2023-03-23T09:48:59;13.40;99.90
11083;DHT22;5595;50.186;8.468;2023-03-23T09:51:37;13.50;99.90
11083;DHT22;5595;50.186;8.468;2023-03-23T09:54:12;13.60;99.90
11083;DHT22;5595;50.186;8.468;2023-03-23T09:56:40;13.50;99.90
11083;DHT22;5595;50.186;8.468;2023-03-23T09:59:13;13.60;99.90
11083;DHT22;5595;50.186;8.468;2023-03-23T10:01:43;13.80;99.90
11083;DHT22;5595;50.186;8.468;2023-03-23T10:04:16;13.70;99.90
11083;DHT22;5595;50.186;8.468;2023-03-23T10:06:46;13.60;99.90
11083;DHT22;5595;50.186;8.468;2023-03-23T10:09:17;13.50;99.90
11083;DHT22;5595;50.186;8.468;2023-03-23T10:12:02;13.50;99.90
11083;DHT22;5595;50.186;8.468;2023-03-23T10:14:58;13.50;99.90
11083;DHT22;5595;50.186;8.468;2023-03-23T10:17:30;13.50;99.90
11083;DHT22;5595;50.186;8.468;2023-03-23T10:20:10;13.40;99.90
11083;DHT22;5595;50.186;8.468;2023-03-23T10:22:48;13.70;99.90
11083;DHT22;5595;50.186;8.468;2023-03-23T10:25:21;13.60;99.90
11083;DHT22;5595;50.186;8.468;2023-03-23T10:27:52;13.50;99.90
11083;DHT22;5595;50.186;8.468;2023-03-23T10:30:24;13.50;99.90
11083;DHT22;5595;50.186;8.468;2023-03-23T10:32:54;13.40;99.90
11083;DHT22;5595;50.186;8.468;2023-03-23T10:35:26;13.60;99.90
11083;DHT22;5595;50.186;8.468;2023-03-23T10:37:58;13.70;99.90
11083;DHT22;5595;50.186;8.468;2023-03-23T10:40:29;13.90;99.90
11083;DHT22;5595;50.186;8.468;2023-03-23T10:43:00;14.20;99.90
11083;DHT22;5595;50.186;8.468;2023-03-23T10:45:29;14.20;99.90
11083;DHT22;5595;50.186;8.468;2023-03-23T10:48:01;14.20;99.90
11083;DHT22;5595;50.186;8.468;2023-03-23T10:50:34;14.20;99.90
11083;DHT22;5595;50.186;8.468;2023-03-23T10:53:11;14.10;99.90
11083;DHT22;5595;50.186;8.468;2023-03-23T10:55:42;14.20;99.90
11083;DHT22;5595;50.186;8.468;2023-03-23T10:58:11;14.00;99.90
11083;DHT22;5595;50.186;8.468;2023-03-23T11:00:44;14.20;99.90
11083;DHT22;5595;50.186;8.468;2023-03-23T11:03:25;14.10;99.90
11083;DHT22;5595;50.186;8.468;2023-03-23T11:05:56;14.10;99.90
11083;DHT22;5595;50.186;8.468;2023-03-23T11:08:25;14.00;99.90
11083;DHT22;5595;50.186;8.468;2023-03-23T11:10:55;14.10;99.90
11083;DHT22;5595;50.186;8.468;2023-03-23T11:13:31;14.40;99.90
11083;DHT22;5595;50.186;8.468;2023-03-23T11:15:59;14.80;99.90
11083;DHT22;5595;50.186;8.468;2023-03-23T11:18:35;15.10;99.90
11083;DHT22;5595;50.186;8.468;2023-03-23T11:21:04;15.40;99.90
11083;DHT22;5595;50.186;8.468;2023-03-23T11:23:33;15.60;99.90
11083;DHT22;5595;50.186;8.468;2023-03-23T11:26:09;15.70;99.90
11083;DHT22;5595;50.186;8.468;2023-03-23T11:28:38;15.70;99.90
11083;DHT22;5595;50.186;8.468;2023-03-23T11:31:09;15.50;99.90
11083;DHT22;5595;50.186;8.468;2023-03-23T11:33:39;15.50;99.90
11083;DHT22;5595;50.186;8.468;2023-03-23T11:36:07;15.40;99.90
11083;DHT22;5595;50.186;8.468;2023-03-23T11:38:35;15.30;99.90
11083;DHT22;5595;50.186;8.468;2023-03-23T11:41:09;15.20;99.90
11083;DHT22;5595;50.186;8.468;2023-03-23T11:43:40;15.20;99.90
11083;DHT22;5595;50.186;8.468;2023-03-23T11:46:19;15.20;99.90
11083;DHT22;5595;50.186;8.468;2023-03-23T11:48:53;15.10;99.90
11083;DHT22;5595;50.186;8.468;2023-03-23T11:51:30;15.00;99.90
11083;DHT22;5595;50.186;8.468;2023-03-23T11:54:04;14.80;99.90
11083;DHT22;5595;50.186;8.468;2023-03-23T11:56:38;14.70;99.90
11083;DHT22;5595;50.186;8.468;2023-03-23T11:59:10;14.50;99.90
11083;DHT22;5595;50.186;8.468;2023-03-23T12:01:50;14.40;99.90
11083;DHT22;5595;50.186;8.468;2023-03-23T12:04:40;14.30;99.90
11083;DHT22;5595;50.186;8.468;2023-03-23T12:07:32;14.10;99.90
11083;DHT22;5595;50.186;8.468;2023-03-23T12:10:11;14.10;99.90
11083;DHT22;5595;50.186;8.468;2023-03-23T12:12:48;14.20;99.90
11083;DHT22;5595;50.186;8.468;2023-03-23T12:15:22;14.10;99.90
11083;DHT22;5595;50.186;8.468;2023-03-23T12:17:59;13.90;99.90
11083;DHT22;5595;50.186;8.468;2023-03-23T12:20:37;14.00;99.90
11083;DHT22;5595;50.186;8.468;2023-03-23T12:23:14;13.80;99.90
11083;DHT22;5595;50.186;8.468;2023-03-23T12:29:10;13.80;99.90
11083;DHT22;5595;50.186;8.468;2023-03-23T12:31:44;13.80;99.90
11083;DHT22;5595;50.186;8.468;2023-03-23T12:34:20;13.90;99.90
11083;DHT22;5595;50.186;8.468;2023-03-23T12:37:06;14.20;99.90
11083;DHT22;5595;50.186;8.468;2023-03-23T12:39:55;14.50;99.90
11083;DHT22;5595;50.186;8.468;2023-03-23T12:42:33;14.60;99.90
11083;DHT22;5595;50.186;8.468;2023-03-23T12:45:12;14.70;99.90
11083;DHT22;5595;50.186;8.468;2023-03-23T12:47:46;14.80;99.90
11083;DHT22;5595;50.186;8.468;2023-03-23T12:50:18;14.80;99.90
11083;DHT22;5595;50.186;8.468;2023-03-23T12:52:53;15.00;99.90
11083;DHT22;5595;50.186;8.468;2023-03-23T12:55:30;15.30;99.90
11083;DHT22;5595;50.186;8.468;2023-03-23T12:58:02;15.60;99.90
11083;DHT22;5595;50.186;8.468;2023-03-23T13:00:50;15.70;99.90
11083;DHT22;5595;50.186;8.468;2023-03-23T13:03:25;15.70;99.90
11083;DHT22;5595;50.186;8.468;2023-03-23T13:06:04;15.70;99.90
11083;DHT22;5595;50.186;8.468;2023-03-23T13:08:36;15.70;99.90
11083;DHT22;5595;50.186;8.468;2023-03-23T13:11:10;15.70;99.90
11083;DHT22;5595;50.186;8.468;2023-03-23T13:13:47;15.70;99.90
11083;DHT22;5595;50.186;8.468;2023-03-23T13:16:25;15.80;99.90
11083;DHT22;5595;50.186;8.468;2023-03-23T13:19:06;16.00;99.90
11083;DHT22;5595;50.186;8.468;2023-03-23T13:21:40;16.20;99.90
11083;DHT22;5595;50.186;8.468;2023-03-23T13:24:13;16.10;99.90
11083;DHT22;5595;50.186;8.468;2023-03-23T13:26:42;16.00;99.90
11083;DHT22;5595;50.186;8.468;2023-03-23T13:29:13;16.10;99.90
11083;DHT22;5595;50.186;8.468;2023-03-23T13:31:46;16.20;99.90
11083;DHT22;5595;50.186;8.468;2023-03-23T13:34:18;16.20;99.90
11083;DHT22;5595;50.186;8.468;2023-03-23T13:36:53;16.10;99.90
11083;DHT22;5595;50.186;8.468;2023-03-23T13:39:23;16.30;99.90
11083;DHT22;5595;50.186;8.468;2023-03-23T13:42:01;16.30;99.90
11083;DHT22;5595;50.186;8.468;2023-03-23T13:44:44;16.20;99.90
11083;DHT22;5595;50.186;8.468;2023-03-23T13:47:27;16.00;99.90
11083;DHT22;5595;50.186;8.468;2023-03-23T13:49:58;15.90;99.90
11083;DHT22;5595;50.186;8.468;2023-03-23T13:52:37;15.90;99.90
11083;DHT22;5595;50.186;8.468;2023-03-23T13:55:21;16.00;99.90
11083;DHT22;5595;50.186;8.468;2023-03-23T13:57:51;16.20;99.90
11083;DHT22;5595;50.186;8.468;2023-03-23T14:00:37;16.40;99.90
11083;DHT22;5595;50.186;8.468;2023-03-23T14:03:16;16.50;99.90
11083;DHT22;5595;50.186;8.468;2023-03-23T14:05:45;16.30;99.90
11083;DHT22;5595;50.186;8.468;2023-03-23T14:08:22;16.10;99.90
11083;DHT22;5595;50.186;8.468;2023-03-23T14:10:53;16.10;99.90
11083;DHT22;5595;50.186;8.468;2023-03-23T14:13:25;15.90;99.90
11083;DHT22;5595;50.186;8.468;2023-03-23T14:15:58;15.70;99.90
11083;DHT22;5595;50.186;8.468;2023-03-23T14:18:32;15.60;99.90
11083;DHT22;5595;50.186;8.468;2023-03-23T14:21:01;15.60;99.90
11083;DHT22;5595;50.186;8.468;2023-03-23T14:23:31;15.50;99.90
11083;DHT22;5595;50.186;8.468;2023-03-23T14:26:00;15.60;99.90
11083;DHT22;5595;50.186;8.468;2023-03-23T14:28:37;15.70;99.90
11083;DHT22;5595;50.186;8.468;2023-03-23T14:31:08;15.60;99.90
11083;DHT22;5595;50.186;8.468;2023-03-23T14:33:42;15.50;99.90
11083;DHT22;5595;50.186;8.468;2023-03-23T14:36:09;15.50;99.90
11083;DHT22;5595;50.186;8.468;2023-03-23T14:38:36;15.30;99.90
11083;DHT22;5595;50.186;8.468;2023-03-23T14:41:05;15.20;99.90
11083;DHT22;5595;50.186;8.468;2023-03-23T14:43:34;15.00;99.90
11083;DHT22;5595;50.186;8.468;2023-03-23T14:46:06;14.90;99.90
11083;DHT22;5595;50.186;8.468;2023-03-23T14:48:34;14.60;99.90
11083;DHT22;5595;50.186;8.468;2023-03-23T14:51:05;14.50;99.90
11083;DHT22;5595;50.186;8.468;2023-03-23T14:53:35;14.40;99.90
11083;DHT22;5595;50.186;8.468;2023-03-23T14:56:09;14.30;99.90
11083;DHT22;5595;50.186;8.468;2023-03-23T14:58:37;14.30;99.90
11083;DHT22;5595;50.186;8.468;2023-03-23T15:01:07;14.20;99.90
11083;DHT22;5595;50.186;8.468;2023-03-23T15:03:41;14.40;99.90
11083;DHT22;5595;50.186;8.468;2023-03-23T15:06:14;14.30;99.90
11083;DHT22;5595;50.186;8.468;2023-03-23T15:08:41;14.50;99.90
11083;DHT22;5595;50.186;8.468;2023-03-23T15:11:14;14.70;99.90
11083;DHT22;5595;50.186;8.468;2023-03-23T15:13:48;14.80;99.90
11083;DHT22;5595;50.186;8.468;2023-03-23T15:16:19;14.80;99.90
11083;DHT22;5595;50.186;8.468;2023-03-23T15:18:51;14.80;99.90
11083;DHT22;5595;50.186;8.468;2023-03-23T15:21:24;15.00;99.90
11083;DHT22;5595;50.186;8.468;2023-03-23T15:23:51;15.30;99.90
11083;DHT22;5595;50.186;8.468;2023-03-23T15:26:31;15.20;99.90
11083;DHT22;5595;50.186;8.468;2023-03-23T15:29:12;15.20;99.90
11083;DHT22;5595;50.186;8.468;2023-03-23T15:31:40;15.10;99.90
11083;DHT22;5595;50.186;8.468;2023-03-23T15:34:14;15.10;99.90
11083;DHT22;5595;50.186;8.468;2023-03-23T15:36:43;15.20;99.90
11083;DHT22;5595;50.186;8.468;2023-03-23T15:39:11;15.20;99.90
11083;DHT22;5595;50.186;8.468;2023-03-23T15:41:46;15.10;99.90
11083;DHT22;5595;50.186;8.468;2023-03-23T15:44:22;15.20;99.90
11083;DHT22;5595;50.186;8.468;2023-03-23T15:46:51;15.00;99.90
11083;DHT22;5595;50.186;8.468;2023-03-23T15:49:18;15.00;99.90
11083;DHT22;5595;50.186;8.468;2023-03-23T15:51:46;14.90;99.90
11083;DHT22;5595;50.186;8.468;2023-03-23T15:54:14;14.90;99.90
11083;DHT22;5595;50.186;8.468;2023-03-23T15:56:42;14.90;99.90
11083;DHT22;5595;50.186;8.468;2023-03-23T15:59:10;14.70;99.90
11083;DHT22;5595;50.186;8.468;2023-03-23T16:01:39;14.60;99.90
11083;DHT22;5595;50.186;8.468;2023-03-23T16:04:08;14.70;99.90
11083;DHT22;5595;50.186;8.468;2023-03-23T16:06:36;14.60;99.90
11083;DHT22;5595;50.186;8.468;2023-03-23T16:09:06;14.50;99.90
11083;DHT22;5595;50.186;8.468;2023-03-23T16:11:36;14.50;99.90